createdAt,value
2022-10-23T00:01:48.097Z,37.67
2022-10-23T00:04:19.488Z,39.40
2022-10-23T00:06:54.382Z,37.78
2022-10-23T00:09:26.016Z,38.10
2022-10-23T00:11:54.783Z,37.55
2022-10-23T00:14:25.511Z,37.08
2022-10-23T00:19:22.277Z,36.92
2022-10-23T00:21:51.143Z,37.80
2022-10-23T00:24:19.841Z,38.80
2022-10-23T00:26:51.979Z,37.72
2022-10-23T00:29:20.781Z,37.80
2022-10-23T00:31:49.331Z,36.60
2022-10-23T00:34:19.954Z,36.22
2022-10-23T00:36:48.678Z,38.53
2022-10-23T00:39:17.473Z,37.65
2022-10-23T00:41:46.308Z,37.70
2022-10-23T00:44:48.444Z,37.30
2022-10-23T00:47:18.691Z,39.42
2022-10-23T00:49:47.457Z,38.70
2022-10-23T00:52:16.737Z,38.22
2022-10-23T00:54:45.711Z,41.15
2022-10-23T00:57:15.763Z,37.80
2022-10-23T00:59:44.606Z,39.25
2022-10-23T01:02:13.372Z,38.83
2022-10-23T01:04:43.208Z,40.05
2022-10-23T01:07:15.823Z,39.85
2022-10-23T01:09:50.026Z,37.92
2022-10-23T01:12:24.599Z,40.42
2022-10-23T01:15:00.173Z,38.55
2022-10-23T01:17:35.006Z,38.10
2022-10-23T01:20:17.571Z,41.55
2022-10-23T01:23:00.460Z,39.45
2022-10-23T01:25:41.785Z,37.65
2022-10-23T01:28:13.349Z,38.15
2022-10-23T01:30:44.592Z,39.30
2022-10-23T01:33:16.797Z,41.50
2022-10-23T01:35:51.597Z,40.97
2022-10-23T01:38:23.277Z,39.70
2022-10-23T01:40:57.703Z,40.53
2022-10-23T01:43:31.098Z,39.78
2022-10-23T01:46:02.355Z,41.30
2022-10-23T01:48:32.405Z,40.97
2022-10-23T01:51:03.500Z,40.33
2022-10-23T01:53:38.606Z,41.10
2022-10-23T01:56:11.106Z,41.65
2022-10-23T01:58:44.293Z,40.53
2022-10-23T02:01:13.759Z,38.85
2022-10-23T02:03:50.285Z,41.33
2022-10-23T02:06:19.821Z,42.20
2022-10-23T02:08:48.647Z,41.35
2022-10-23T02:11:18.785Z,40.60
2022-10-23T02:13:56.788Z,41.42
2022-10-23T02:16:30.638Z,41.97
2022-10-23T02:19:10.635Z,42.63
2022-10-23T02:21:46.192Z,41.95
2022-10-23T02:24:16.814Z,42.22
2022-10-23T02:26:53.954Z,43.30
2022-10-23T02:29:29.244Z,42.95
2022-10-23T02:32:00.124Z,44.63
2022-10-23T02:34:28.974Z,43.58
2022-10-23T02:36:57.946Z,44.60
2022-10-23T02:39:28.314Z,48.08
2022-10-23T02:42:01.759Z,46.20
2022-10-23T02:44:40.287Z,45.60
2022-10-23T02:47:21.268Z,47.05
2022-10-23T02:49:54.667Z,46.60
2022-10-23T02:52:26.489Z,46.72
2022-10-23T02:55:07.018Z,46.30
2022-10-23T02:57:54.429Z,45.55
2022-10-23T03:00:25.604Z,46.20
2022-10-23T03:02:58.044Z,45.20
2022-10-23T03:05:31.903Z,45.30
2022-10-23T03:08:00.760Z,45.08
2022-10-23T03:10:29.136Z,45.30
2022-10-23T03:12:57.882Z,48.75
2022-10-23T03:15:28.284Z,45.78
2022-10-23T03:17:57.133Z,44.47
2022-10-23T03:20:26.179Z,46.30
2022-10-23T03:22:54.560Z,47.80
2022-10-23T03:25:23.244Z,44.10
2022-10-23T03:27:52.996Z,43.22
2022-10-23T03:30:21.752Z,45.00
2022-10-23T03:32:56.919Z,44.00
2022-10-23T03:35:25.612Z,45.75
2022-10-23T03:37:53.992Z,44.05
2022-10-23T03:40:25.192Z,43.85
2022-10-23T03:42:53.874Z,44.67
2022-10-23T03:45:22.600Z,41.33
2022-10-23T03:47:51.966Z,43.72
2022-10-23T03:50:23.274Z,43.75
2022-10-23T03:52:51.677Z,44.30
2022-10-23T03:55:20.273Z,44.88
2022-10-23T03:57:48.970Z,44.40
2022-10-23T04:00:18.640Z,43.08
2022-10-23T04:02:49.194Z,42.20
2022-10-23T04:05:18.361Z,40.50
2022-10-23T04:07:56.816Z,40.08
2022-10-23T04:12:54.086Z,41.38
2022-10-23T04:15:23.024Z,40.85
2022-10-23T04:17:51.729Z,41.15
2022-10-23T04:20:21.633Z,42.63
2022-10-23T04:22:50.097Z,43.42
2022-10-23T04:25:20.483Z,41.33
2022-10-23T04:27:49.828Z,43.22
2022-10-23T04:30:19.287Z,43.42
2022-10-23T04:32:51.749Z,41.13
2022-10-23T04:35:21.026Z,43.42
2022-10-23T04:37:49.560Z,42.75
2022-10-23T04:40:20.871Z,41.45
2022-10-23T04:42:49.689Z,40.58
2022-10-23T04:45:18.608Z,40.67
2022-10-23T04:47:47.311Z,42.85
2022-10-23T04:50:16.620Z,39.42
2022-10-23T04:53:03.228Z,40.17
2022-10-23T04:56:09.175Z,41.42
2022-10-23T04:58:47.875Z,40.17
2022-10-23T05:01:17.063Z,40.90
2022-10-23T05:03:45.812Z,43.22
2022-10-23T05:06:15.244Z,43.93
2022-10-23T05:08:52.449Z,40.78
2022-10-23T05:11:40.644Z,39.70
2022-10-23T05:14:12.211Z,40.40
2022-10-23T05:16:45.959Z,40.17
2022-10-23T05:19:21.976Z,41.50
2022-10-23T05:21:55.977Z,44.42
2022-10-23T05:24:29.083Z,44.80
2022-10-23T05:27:02.965Z,47.13
2022-10-23T05:29:33.134Z,43.70
2022-10-23T05:32:04.779Z,45.55
2022-10-23T05:34:34.736Z,44.63
2022-10-23T05:37:04.218Z,44.97
2022-10-23T05:39:37.647Z,43.38
2022-10-23T05:42:12.455Z,46.22
2022-10-23T05:44:42.455Z,41.97
2022-10-23T05:47:11.276Z,42.72
2022-10-23T05:50:01.059Z,43.53
2022-10-23T05:52:35.793Z,43.70
2022-10-23T05:55:34.039Z,37.90
2022-10-23T05:58:25.108Z,39.88
2022-10-23T06:01:18.581Z,38.92
2022-10-23T06:04:04.186Z,38.88
2022-10-23T06:07:05.487Z,36.55
2022-10-23T06:09:36.310Z,36.78
2022-10-23T06:12:05.636Z,33.83
2022-10-23T06:14:36.108Z,30.35
2022-10-23T06:17:05.133Z,33.42
2022-10-23T06:19:39.757Z,33.25
2022-10-23T06:22:09.070Z,33.03
2022-10-23T06:25:00.375Z,35.45
2022-10-23T06:27:29.628Z,32.95
2022-10-23T06:29:59.953Z,31.42
2022-10-23T06:32:28.760Z,34.08
2022-10-23T06:35:11.131Z,32.00
2022-10-23T06:37:39.991Z,32.47
2022-10-23T06:40:19.489Z,31.40
2022-10-23T06:43:00.201Z,30.42
2022-10-23T06:45:50.804Z,30.48
2022-10-23T06:48:19.559Z,31.63
2022-10-23T06:51:08.212Z,30.40
2022-10-23T06:53:43.246Z,32.92
2022-10-23T06:56:35.316Z,32.45
2022-10-23T06:59:08.815Z,33.90
2022-10-23T07:01:39.643Z,36.53
2022-10-23T07:04:09.929Z,34.60
2022-10-23T07:06:39.287Z,33.35
2022-10-23T07:09:08.837Z,32.90
2022-10-23T07:12:00.769Z,32.33
2022-10-23T07:14:37.827Z,32.42
2022-10-23T07:17:08.089Z,34.28
2022-10-23T07:19:36.780Z,31.67
2022-10-23T07:22:13.267Z,32.63
2022-10-23T07:24:56.516Z,32.95
2022-10-23T07:27:33.408Z,31.70
2022-10-23T07:30:03.695Z,31.25
2022-10-23T07:32:38.863Z,33.22
2022-10-23T07:35:26.466Z,35.80
2022-10-23T07:38:05.607Z,34.33
2022-10-23T07:40:38.699Z,34.50
2022-10-23T07:43:09.870Z,33.08
2022-10-23T07:45:39.023Z,28.30
2022-10-23T07:48:18.578Z,27.73
2022-10-23T07:51:01.962Z,27.58
2022-10-23T07:53:32.764Z,26.35
2022-10-23T07:56:16.490Z,22.20
2022-10-23T07:59:03.833Z,23.45
2022-10-23T08:01:34.570Z,22.95
2022-10-23T08:04:05.706Z,22.27
2022-10-23T08:06:37.286Z,22.55
2022-10-23T08:09:07.255Z,23.57
2022-10-23T08:11:39.605Z,23.50
2022-10-23T08:16:40.567Z,23.23
2022-10-23T08:19:20.015Z,24.67
2022-10-23T08:21:54.993Z,23.98
2022-10-23T08:24:23.872Z,25.83
2022-10-23T08:26:53.161Z,25.00
2022-10-23T08:29:25.340Z,24.90
2022-10-23T08:34:37.996Z,24.95
2022-10-23T08:37:07.101Z,24.15
2022-10-23T08:39:37.476Z,25.20
2022-10-23T08:42:28.017Z,25.27
2022-10-23T08:45:05.740Z,24.98
2022-10-23T08:47:41.076Z,24.83
2022-10-23T08:50:41.531Z,25.15
2022-10-23T08:53:17.533Z,25.05
2022-10-23T08:55:50.199Z,25.73
2022-10-23T08:58:21.997Z,24.27
2022-10-23T09:00:51.640Z,24.13
2022-10-23T09:03:20.474Z,24.40
2022-10-23T09:06:01.947Z,24.33
2022-10-23T09:08:41.878Z,24.40
2022-10-23T09:11:14.098Z,24.27
2022-10-23T09:14:21.819Z,22.70
2022-10-23T09:17:00.946Z,21.70
2022-10-23T09:19:31.512Z,22.33
2022-10-23T09:24:31.912Z,22.25
2022-10-23T09:27:01.874Z,20.77
2022-10-23T09:29:33.223Z,22.58
2022-10-23T09:32:03.747Z,20.95
2022-10-23T09:34:33.827Z,21.77
2022-10-23T09:39:35.615Z,21.40
2022-10-23T09:44:50.791Z,21.70
2022-10-23T09:47:22.828Z,21.50
2022-10-23T09:49:52.821Z,21.02
2022-10-23T09:52:27.316Z,18.73
2022-10-23T09:54:58.836Z,18.77
2022-10-23T09:57:31.441Z,20.08
2022-10-23T10:00:02.769Z,20.13
2022-10-23T10:02:40.479Z,21.85
2022-10-23T10:05:35.831Z,19.75
2022-10-23T10:09:21.644Z,19.67
2022-10-23T10:11:58.524Z,19.63
2022-10-23T10:14:43.675Z,17.15
2022-10-23T10:17:19.566Z,19.70
2022-10-23T10:20:07.110Z,20.42
2022-10-23T10:22:41.457Z,16.02
2022-10-23T10:25:15.197Z,16.95
2022-10-23T10:27:56.683Z,16.45
2022-10-23T10:30:26.044Z,17.75
2022-10-23T10:32:59.954Z,15.17
2022-10-23T10:35:37.345Z,15.60
2022-10-23T10:38:33.243Z,15.05
2022-10-23T10:41:21.664Z,16.27
2022-10-23T10:44:00.141Z,14.40
2022-10-23T10:46:34.986Z,13.75
2022-10-23T10:49:12.604Z,14.15
2022-10-23T10:52:06.165Z,13.65
2022-10-23T10:54:44.944Z,13.02
2022-10-23T10:57:18.753Z,11.93
2022-10-23T10:59:52.908Z,12.65
2022-10-23T11:02:28.223Z,12.48
2022-10-23T11:05:02.442Z,14.30
2022-10-23T11:07:35.657Z,12.93
2022-10-23T11:10:08.209Z,14.05
2022-10-23T11:12:36.991Z,14.07
2022-10-23T11:15:14.095Z,13.95
2022-10-23T11:17:47.836Z,14.05
2022-10-23T11:20:40.167Z,14.07
2022-10-23T11:23:47.243Z,14.20
2022-10-23T11:26:25.818Z,14.27
2022-10-23T11:29:28.089Z,14.35
2022-10-23T11:32:08.878Z,13.98
2022-10-23T11:34:49.281Z,15.15
2022-10-23T11:40:01.201Z,13.13
2022-10-23T11:42:35.099Z,12.95
2022-10-23T11:45:26.578Z,12.50
2022-10-23T11:48:00.815Z,12.98
2022-10-23T11:50:32.335Z,13.25
2022-10-23T11:53:14.367Z,13.55
2022-10-23T11:55:59.240Z,12.75
2022-10-23T11:58:32.318Z,12.75
2022-10-23T12:01:05.301Z,14.02
2022-10-23T12:03:43.113Z,13.05
2022-10-23T12:06:20.515Z,13.10
2022-10-23T12:08:52.487Z,13.00
2022-10-23T12:11:28.771Z,11.50
2022-10-23T12:13:57.483Z,13.60
2022-10-23T12:16:36.751Z,13.23
2022-10-23T12:19:20.330Z,13.70
2022-10-23T12:21:49.244Z,12.88
2022-10-23T12:24:39.799Z,12.00
2022-10-23T12:27:18.174Z,14.18
2022-10-23T12:30:02.837Z,15.35
2022-10-23T12:32:47.536Z,14.38
2022-10-23T12:35:47.731Z,15.75
2022-10-23T12:38:18.251Z,17.00
2022-10-23T12:40:47.303Z,17.08
2022-10-23T12:43:27.304Z,15.85
2022-10-23T12:45:56.658Z,15.93
2022-10-23T12:48:27.047Z,16.67
2022-10-23T12:50:57.855Z,15.18
2022-10-23T12:53:26.727Z,14.15
2022-10-23T12:56:01.667Z,15.48
2022-10-23T12:58:32.200Z,14.98
2022-10-23T13:01:06.726Z,16.05
2022-10-23T13:03:38.201Z,15.63
2022-10-23T13:06:11.605Z,16.55
2022-10-23T13:08:42.747Z,17.63
2022-10-23T13:11:31.295Z,17.63
2022-10-23T13:14:12.720Z,17.20
2022-10-23T13:16:41.077Z,17.23
2022-10-23T13:19:24.431Z,18.13
2022-10-23T13:21:54.831Z,17.65
2022-10-23T13:26:52.154Z,18.20
2022-10-23T13:29:23.169Z,18.00
2022-10-23T13:31:52.204Z,18.25
2022-10-23T13:34:27.278Z,18.85
2022-10-23T13:37:00.911Z,18.63
2022-10-23T13:39:31.745Z,20.35
2022-10-23T13:42:12.952Z,17.80
2022-10-23T13:44:42.482Z,20.25
2022-10-23T13:47:13.463Z,19.37
2022-10-23T13:49:41.839Z,21.17
2022-10-23T13:52:14.836Z,20.75
2022-10-23T13:54:43.781Z,21.13
2022-10-23T13:57:15.747Z,21.13
2022-10-23T13:59:44.988Z,20.00
2022-10-23T14:02:20.659Z,21.38
2022-10-23T14:04:49.801Z,20.55
2022-10-23T14:07:22.230Z,21.15
2022-10-23T14:09:51.212Z,21.17
2022-10-23T14:12:19.955Z,22.45
2022-10-23T14:14:52.390Z,22.17
2022-10-23T14:17:22.950Z,20.63
2022-10-23T14:19:51.386Z,18.90
2022-10-23T14:22:21.869Z,18.02
2022-10-23T14:24:51.106Z,20.65
2022-10-23T14:27:19.835Z,17.45
2022-10-23T14:29:48.529Z,18.70
2022-10-23T14:32:17.269Z,18.15
2022-10-23T14:34:46.351Z,18.63
2022-10-23T14:37:15.098Z,17.33
2022-10-23T14:39:49.783Z,16.27
2022-10-23T14:42:19.478Z,15.75
2022-10-23T14:44:50.009Z,17.85
2022-10-23T14:47:19.963Z,15.70
2022-10-23T14:49:50.659Z,15.27
2022-10-23T14:52:19.555Z,15.27
2022-10-23T14:54:49.614Z,16.42
2022-10-23T14:57:21.108Z,15.95
2022-10-23T14:59:50.345Z,17.42
2022-10-23T15:02:19.145Z,17.13
2022-10-23T15:04:47.482Z,18.08
2022-10-23T15:07:16.143Z,19.45
2022-10-23T15:09:44.808Z,17.88
2022-10-23T15:12:14.944Z,18.88
2022-10-23T15:14:43.624Z,18.95
2022-10-23T15:17:15.741Z,18.65
2022-10-23T15:19:44.222Z,21.23
2022-10-23T15:22:12.942Z,19.67
2022-10-23T15:24:41.833Z,18.77
2022-10-23T15:29:45.652Z,20.80
2022-10-23T15:32:14.511Z,21.58
2022-10-23T15:34:42.997Z,20.35
2022-10-23T15:37:12.414Z,21.75
2022-10-23T15:39:41.325Z,21.27
2022-10-23T15:42:11.508Z,21.95
2022-10-23T15:44:41.105Z,21.75
2022-10-23T15:47:11.295Z,21.13
2022-10-23T15:49:40.039Z,22.13
2022-10-23T15:54:39.421Z,22.52
2022-10-23T15:57:08.129Z,21.63
2022-10-23T15:59:37.016Z,23.08
2022-10-23T16:02:06.080Z,21.52
2022-10-23T16:04:36.613Z,21.52
2022-10-23T16:07:05.744Z,22.40
2022-10-23T16:09:34.522Z,21.42
2022-10-23T16:12:03.440Z,22.02
2022-10-23T16:14:32.153Z,27.48
2022-10-23T16:17:00.847Z,22.95
2022-10-23T16:19:29.171Z,23.20
2022-10-23T16:21:59.250Z,23.70
2022-10-23T16:24:27.985Z,22.27
2022-10-23T16:26:57.674Z,23.48
2022-10-23T16:29:27.324Z,21.13
2022-10-23T16:31:55.843Z,22.67
2022-10-23T16:34:24.890Z,24.50
2022-10-23T16:36:54.197Z,23.95
2022-10-23T16:39:48.974Z,25.17
2022-10-23T16:42:37.246Z,26.42
2022-10-23T16:45:12.520Z,23.98
2022-10-23T16:47:42.492Z,24.83
2022-10-23T16:50:11.449Z,25.23
2022-10-23T16:52:39.933Z,26.02
2022-10-23T16:55:11.028Z,27.42
2022-10-23T16:57:39.691Z,25.98
2022-10-23T17:00:10.735Z,26.45
2022-10-23T17:02:39.504Z,28.38
2022-10-23T17:05:08.777Z,29.20
2022-10-23T17:07:38.426Z,29.55
2022-10-23T17:10:08.019Z,29.25
2022-10-23T17:12:38.785Z,30.45
2022-10-23T17:15:08.801Z,31.23
2022-10-23T17:17:37.539Z,30.92
2022-10-23T17:20:06.986Z,30.52
2022-10-23T17:22:36.035Z,30.83
2022-10-23T17:25:05.061Z,29.80
2022-10-23T17:27:33.728Z,30.08
2022-10-23T17:30:03.824Z,30.80
2022-10-23T17:32:32.742Z,29.58
2022-10-23T17:35:01.496Z,28.73
2022-10-23T17:37:30.124Z,28.00
2022-10-23T17:40:02.560Z,29.23
2022-10-23T17:42:31.382Z,27.25
2022-10-23T17:45:00.005Z,27.38
2022-10-23T17:47:30.058Z,27.98
2022-10-23T17:49:58.714Z,27.98
2022-10-23T17:52:27.046Z,27.58
2022-10-23T17:54:55.709Z,28.77
2022-10-23T17:57:24.438Z,27.55
2022-10-23T17:59:53.177Z,28.13
2022-10-23T18:02:22.040Z,29.25
2022-10-23T18:04:51.748Z,29.42
2022-10-23T18:07:20.455Z,31.27
2022-10-23T18:09:49.258Z,29.80
2022-10-23T18:12:18.208Z,37.35
2022-10-23T18:14:46.841Z,40.60
2022-10-23T18:17:15.526Z,44.95
2022-10-23T18:19:43.897Z,43.75
2022-10-23T18:22:14.055Z,47.95
2022-10-23T18:24:42.794Z,47.50
2022-10-23T18:27:11.627Z,44.15
2022-10-23T18:29:43.500Z,46.65
2022-10-23T18:32:12.153Z,44.28
2022-10-23T18:34:40.520Z,43.15
2022-10-23T18:37:09.246Z,45.38
2022-10-23T18:39:39.363Z,45.83
2022-10-23T18:42:08.053Z,43.83
2022-10-23T18:44:37.111Z,43.97
2022-10-23T18:47:05.933Z,44.50
2022-10-23T18:49:34.323Z,46.28
2022-10-23T18:52:03.526Z,45.10
2022-10-23T18:54:32.413Z,45.47
2022-10-23T18:57:03.780Z,44.97
2022-10-23T18:59:33.522Z,47.58
2022-10-23T19:02:02.628Z,49.70
2022-10-23T19:04:32.874Z,48.55
2022-10-23T19:07:04.606Z,47.17
2022-10-23T19:09:33.350Z,51.00
2022-10-23T19:12:04.676Z,57.35
2022-10-23T19:14:33.565Z,47.88
2022-10-23T19:17:05.165Z,47.78
2022-10-23T19:19:36.124Z,47.60
2022-10-23T19:22:05.678Z,51.42
2022-10-23T19:24:39.834Z,51.22
2022-10-23T19:27:10.359Z,52.63
2022-10-23T19:29:41.765Z,52.60
2022-10-23T19:32:10.656Z,53.38
2022-10-23T19:34:39.036Z,54.55
2022-10-23T19:37:09.073Z,52.65
2022-10-23T19:39:38.573Z,56.08
2022-10-23T19:42:08.732Z,55.38
2022-10-23T19:44:38.823Z,56.05
2022-10-23T19:47:07.590Z,55.42
2022-10-23T19:49:35.977Z,52.03
2022-10-23T19:52:07.221Z,51.58
2022-10-23T19:54:36.053Z,50.85
2022-10-23T19:57:04.746Z,53.28
2022-10-23T19:59:33.436Z,53.42
2022-10-23T20:02:03.769Z,52.28
2022-10-23T20:04:32.276Z,50.40
2022-10-23T20:07:01.465Z,56.35
2022-10-23T20:09:30.737Z,54.90
2022-10-23T20:12:00.632Z,52.78
2022-10-23T20:14:29.667Z,54.47
2022-10-23T20:16:59.819Z,52.20
2022-10-23T20:19:29.899Z,53.28
2022-10-23T20:24:27.218Z,56.72
2022-10-23T20:26:57.210Z,61.63
2022-10-23T20:29:26.569Z,66.28
2022-10-23T20:31:54.891Z,65.75
2022-10-23T20:34:23.519Z,68.88
2022-10-23T20:36:53.801Z,69.28
2022-10-23T20:39:25.597Z,68.75
2022-10-23T20:41:55.338Z,77.43
2022-10-23T20:44:24.559Z,73.38
2022-10-23T20:46:53.149Z,79.07
2022-10-23T20:49:21.971Z,77.28
2022-10-23T20:51:55.207Z,75.22
2022-10-23T20:54:25.228Z,78.78
2022-10-23T20:56:54.063Z,82.10
2022-10-23T20:59:22.735Z,93.00
2022-10-23T21:01:53.305Z,90.78
2022-10-23T21:04:24.214Z,89.85
2022-10-23T21:07:09.434Z,87.28
2022-10-23T21:09:39.828Z,83.20
2022-10-23T21:12:08.954Z,88.72
2022-10-23T21:14:38.121Z,82.13
2022-10-23T21:17:08.559Z,89.10
2022-10-23T21:19:36.952Z,88.20
2022-10-23T21:22:07.209Z,92.38
2022-10-23T21:24:36.154Z,86.35
2022-10-23T21:27:04.981Z,84.75
2022-10-23T21:29:33.690Z,81.32
2022-10-23T21:32:02.444Z,72.03
2022-10-23T21:34:31.142Z,78.68
2022-10-23T21:37:12.353Z,79.18
2022-10-23T21:39:42.990Z,67.35
2022-10-23T21:42:12.442Z,72.63
2022-10-23T21:44:41.404Z,76.45
2022-10-23T21:47:10.061Z,81.05
2022-10-23T21:49:38.564Z,74.68
2022-10-23T21:52:07.247Z,99.25
2022-10-23T21:54:35.916Z,98.97
2022-10-23T21:57:06.038Z,113.72
2022-10-23T21:59:35.884Z,98.63
2022-10-23T22:02:05.311Z,96.95
2022-10-23T22:04:33.894Z,101.72
2022-10-23T22:07:04.003Z,98.50
2022-10-23T22:09:34.290Z,102.25
2022-10-23T22:12:03.158Z,94.18
2022-10-23T22:14:33.271Z,103.18
2022-10-23T22:17:01.971Z,96.30
2022-10-23T22:19:30.297Z,100.65
2022-10-23T22:21:59.038Z,92.88
2022-10-23T22:24:27.732Z,91.88
2022-10-23T22:26:57.544Z,85.35
2022-10-23T22:29:27.531Z,85.97
2022-10-23T22:31:58.327Z,90.03
2022-10-23T22:34:58.933Z,87.53
2022-10-23T22:37:17.753Z,78.00
2022-10-23T22:39:46.477Z,80.97
2022-10-23T22:42:15.196Z,79.80
2022-10-23T22:44:43.893Z,85.25
2022-10-23T22:47:14.037Z,80.18
2022-10-23T22:49:42.491Z,74.28
2022-10-23T22:52:11.177Z,72.43
2022-10-23T22:54:39.860Z,74.40
2022-10-23T22:57:08.573Z,72.55
2022-10-23T22:59:37.412Z,67.28
2022-10-23T23:02:06.130Z,67.47
2022-10-23T23:04:38.337Z,70.15
2022-10-23T23:07:08.264Z,56.35
2022-10-23T23:09:38.886Z,72.07
2022-10-23T23:12:08.378Z,76.15
2022-10-23T23:14:37.392Z,71.60
2022-10-23T23:17:06.721Z,71.40
2022-10-23T23:19:36.663Z,75.18
2022-10-23T23:22:06.050Z,83.28
2022-10-23T23:24:34.923Z,75.45
2022-10-23T23:27:03.596Z,72.75
2022-10-23T23:29:32.298Z,79.80
2022-10-23T23:32:00.972Z,74.03
2022-10-23T23:34:29.937Z,73.00
2022-10-23T23:36:59.994Z,70.93
2022-10-23T23:39:29.034Z,68.53
2022-10-23T23:41:57.754Z,60.25
2022-10-23T23:44:26.575Z,64.03
2022-10-23T23:46:54.966Z,59.90
2022-10-23T23:49:23.934Z,63.80
2022-10-23T23:51:52.770Z,62.83
2022-10-23T23:54:22.983Z,63.08
2022-10-23T23:56:51.644Z,64.95
2022-10-23T23:59:20.323Z,56.15
